Philadelphia, Pennsylvania
Traffic Map
Current Weather Conditions
Philadelphia, Pennsylvania
Overcast
Overcast
14°
Feels Like: 14°
Wind Chill: 14° Ceiling: 700
Heat Index: 14° Visibility: 10mi
Dew Point: 13° Wind: 9mph
Humidity: 93% Direction: 50° (NE)
Pressure: 30.18in Gusts: 0mph
Raw Report DataKPHL 010954Z 05008KT 10SM OVC007 14/13 A3018 RMK AO2 SLP219 T01440133
Traffic Incident Summary
Active as of:
Severity:
Category:
InformationThere was an issue retrieving the traffic information for this location. Please try a different location or try again shortly.
Advertisements
Track Severe Weather on mobile